createdAt,value
2023-03-03T00:00:09.925Z,6.87
2023-03-03T00:01:12.498Z,5.88
2023-03-03T00:02:15.067Z,7.23
2023-03-03T00:03:17.683Z,5.79
2023-03-03T00:04:20.397Z,6.81
2023-03-03T00:05:22.980Z,6.73
2023-03-03T00:06:25.745Z,5.97
2023-03-03T00:07:28.322Z,5.84
2023-03-03T00:08:31.030Z,6.69
2023-03-03T00:09:33.634Z,6.89
2023-03-03T00:10:36.369Z,5.91
2023-03-03T00:11:38.929Z,6.71
2023-03-03T00:12:41.492Z,6.69
2023-03-03T00:13:44.071Z,6.87
2023-03-03T00:14:46.640Z,5.23
2023-03-03T00:15:49.268Z,5.61
2023-03-03T00:16:52.075Z,6.81
2023-03-03T00:17:54.626Z,6.91
2023-03-03T00:18:57.087Z,7.33
2023-03-03T00:19:59.803Z,6.61
2023-03-03T00:21:02.464Z,5.85
2023-03-03T00:22:05.048Z,6.82
2023-03-03T00:23:07.590Z,6.19
2023-03-03T00:24:10.145Z,5.30
2023-03-03T00:25:12.609Z,6.79
2023-03-03T00:26:15.483Z,6.70
2023-03-03T00:27:17.944Z,7.21
2023-03-03T00:28:20.503Z,5.77
2023-03-03T00:29:23.072Z,6.87
2023-03-03T00:30:25.881Z,6.97
2023-03-03T00:31:28.443Z,5.98
2023-03-03T00:32:31.037Z,5.91
2023-03-03T00:33:33.953Z,6.56
2023-03-03T00:34:36.510Z,5.33
2023-03-03T00:35:39.112Z,7.03
2023-03-03T00:36:41.942Z,6.91
2023-03-03T00:37:44.519Z,7.63
2023-03-03T00:38:47.045Z,5.45
2023-03-03T00:39:49.509Z,5.24
2023-03-03T00:40:52.279Z,5.31
2023-03-03T00:41:54.847Z,6.16
2023-03-03T00:42:57.412Z,6.99
2023-03-03T00:44:00.034Z,8.38
2023-03-03T00:45:02.684Z,6.42
2023-03-03T00:46:05.691Z,6.62
2023-03-03T00:47:08.327Z,5.15
2023-03-03T00:48:10.873Z,6.67
2023-03-03T00:49:13.328Z,6.63
2023-03-03T00:50:16.342Z,8.08
2023-03-03T00:51:18.883Z,6.00
2023-03-03T00:52:21.345Z,6.51
2023-03-03T00:53:23.931Z,6.78
2023-03-03T00:54:26.689Z,7.30
2023-03-03T00:55:29.288Z,6.99
2023-03-03T00:56:31.957Z,6.59
2023-03-03T00:57:34.525Z,6.31
2023-03-03T00:58:37.082Z,6.49
2023-03-03T00:59:39.610Z,6.01
2023-03-03T01:00:42.086Z,6.60
2023-03-03T01:01:44.690Z,6.09
2023-03-03T01:02:47.542Z,4.76
2023-03-03T01:03:50.444Z,6.41
2023-03-03T01:04:53.006Z,6.65
2023-03-03T01:05:55.581Z,4.72
2023-03-03T01:06:58.335Z,5.58
2023-03-03T01:08:00.800Z,6.47
2023-03-03T01:09:03.365Z,2.99
2023-03-03T01:10:06.444Z,6.52
2023-03-03T01:11:08.991Z,6.02
2023-03-03T01:12:11.551Z,6.48
2023-03-03T01:13:14.157Z,6.32
2023-03-03T01:14:16.756Z,6.35
2023-03-03T01:15:19.284Z,6.16
2023-03-03T01:16:22.130Z,5.41
2023-03-03T01:17:24.733Z,7.07
2023-03-03T01:18:27.463Z,4.47
2023-03-03T01:19:30.016Z,6.25
2023-03-03T01:20:32.786Z,6.83
2023-03-03T01:21:35.331Z,6.47
2023-03-03T01:22:38.098Z,5.72
2023-03-03T01:23:40.680Z,6.21
2023-03-03T01:24:43.338Z,5.48
2023-03-03T01:25:45.906Z,6.77
2023-03-03T01:26:48.492Z,5.78
2023-03-03T01:27:51.072Z,5.09
2023-03-03T01:28:53.674Z,5.93
2023-03-03T01:29:56.236Z,5.80
2023-03-03T01:30:59.147Z,6.26
2023-03-03T01:32:01.914Z,5.74
2023-03-03T01:33:04.711Z,5.70
2023-03-03T01:34:07.238Z,6.12
2023-03-03T01:35:09.791Z,5.84
2023-03-03T01:36:12.845Z,5.64
2023-03-03T01:37:15.433Z,5.78
2023-03-03T01:38:18.172Z,6.56
2023-03-03T01:39:20.686Z,6.19
2023-03-03T01:40:23.343Z,5.72
2023-03-03T01:41:25.830Z,5.25
2023-03-03T01:42:28.389Z,5.55
2023-03-03T01:43:30.994Z,3.93
2023-03-03T01:44:33.615Z,5.06
2023-03-03T01:45:36.175Z,4.73
2023-03-03T01:46:38.907Z,5.97
2023-03-03T01:47:41.418Z,5.38
2023-03-03T01:48:44.015Z,5.10
2023-03-03T01:49:46.740Z,5.56
2023-03-03T01:50:49.594Z,6.07
2023-03-03T01:51:52.169Z,5.31
2023-03-03T01:52:54.715Z,6.31
2023-03-03T01:53:57.275Z,6.15
2023-03-03T01:54:59.817Z,5.93
2023-03-03T01:56:02.574Z,5.94
2023-03-03T01:57:05.133Z,5.55
2023-03-03T01:58:07.781Z,4.17
2023-03-03T01:59:10.348Z,5.67
2023-03-03T02:00:14.661Z,3.95
2023-03-03T02:01:17.208Z,5.78
2023-03-03T02:02:19.778Z,5.44
2023-03-03T02:03:22.266Z,5.32
2023-03-03T02:04:24.830Z,6.09
2023-03-03T02:05:27.382Z,6.27
2023-03-03T02:06:30.240Z,6.12
2023-03-03T02:07:32.796Z,5.46
2023-03-03T02:08:35.373Z,6.09
2023-03-03T02:09:37.925Z,6.33
2023-03-03T02:10:40.885Z,5.77
2023-03-03T02:11:43.458Z,3.71
2023-03-03T02:12:46.017Z,6.11
2023-03-03T02:13:48.570Z,6.46
2023-03-03T02:14:51.124Z,6.54
2023-03-03T02:15:53.614Z,5.21
2023-03-03T02:16:56.561Z,7.01
2023-03-03T02:17:59.120Z,6.74
2023-03-03T02:19:01.692Z,5.05
2023-03-03T02:20:04.655Z,5.74
2023-03-03T02:21:07.230Z,5.47
2023-03-03T02:22:09.870Z,7.63
2023-03-03T02:23:12.433Z,6.25
2023-03-03T02:24:14.997Z,6.76
2023-03-03T02:25:17.372Z,6.36
2023-03-03T02:26:19.948Z,7.14
2023-03-03T02:27:22.512Z,6.66
2023-03-03T02:28:25.071Z,5.15
2023-03-03T02:29:27.774Z,6.85
2023-03-03T02:30:30.726Z,6.69
2023-03-03T02:31:33.366Z,7.03
2023-03-03T02:32:36.162Z,6.94
2023-03-03T02:33:39.065Z,8.04
2023-03-03T02:34:41.876Z,6.82
2023-03-03T02:35:44.568Z,5.77
2023-03-03T02:36:47.351Z,6.14
2023-03-03T02:37:49.969Z,6.67
2023-03-03T02:38:52.520Z,6.05
2023-03-03T02:39:55.076Z,6.41
2023-03-03T02:40:57.767Z,7.01
2023-03-03T02:42:00.337Z,7.14
2023-03-03T02:43:03.009Z,6.52
2023-03-03T02:44:05.471Z,6.11
2023-03-03T02:45:08.022Z,5.76
2023-03-03T02:46:12.316Z,6.46
2023-03-03T02:47:14.921Z,5.83
2023-03-03T02:48:17.513Z,7.33
2023-03-03T02:49:20.094Z,6.90
2023-03-03T02:50:22.985Z,6.22
2023-03-03T02:51:25.521Z,7.42
2023-03-03T02:52:28.099Z,7.01
2023-03-03T02:53:30.761Z,6.21
2023-03-03T02:54:33.329Z,7.24
2023-03-03T02:55:35.896Z,7.23
2023-03-03T02:56:38.661Z,6.39
2023-03-03T02:57:41.226Z,6.02
2023-03-03T02:58:43.796Z,5.98
2023-03-03T02:59:46.254Z,6.83
2023-03-03T03:00:49.050Z,6.78
2023-03-03T03:01:51.906Z,7.37
2023-03-03T03:02:54.452Z,6.38
2023-03-03T03:03:57.063Z,6.84
2023-03-03T03:04:59.601Z,6.39
2023-03-03T03:06:02.161Z,7.03
2023-03-03T03:07:04.942Z,6.67
2023-03-03T03:08:07.567Z,5.66
2023-03-03T03:09:10.125Z,6.14
2023-03-03T03:10:13.341Z,7.69
2023-03-03T03:11:15.905Z,6.81
2023-03-03T03:12:18.469Z,6.69
2023-03-03T03:13:21.039Z,7.63
2023-03-03T03:14:23.605Z,6.90
2023-03-03T03:15:26.234Z,7.39
2023-03-03T03:16:29.101Z,6.14
2023-03-03T03:17:31.761Z,6.70
2023-03-03T03:18:34.321Z,7.25
2023-03-03T03:19:36.920Z,7.60
2023-03-03T03:20:39.684Z,7.04
2023-03-03T03:21:42.251Z,7.63
2023-03-03T03:22:44.960Z,6.85
2023-03-03T03:23:47.550Z,7.92
2023-03-03T03:24:50.112Z,7.85
2023-03-03T03:25:52.775Z,8.03
2023-03-03T03:26:55.444Z,6.30
2023-03-03T03:27:58.011Z,7.26
2023-03-03T03:29:00.661Z,6.96
2023-03-03T03:30:03.804Z,8.02
2023-03-03T03:31:06.516Z,7.11
2023-03-03T03:32:09.062Z,6.93
2023-03-03T03:33:11.648Z,7.37
2023-03-03T03:34:14.216Z,6.85
2023-03-03T03:35:16.787Z,8.14
2023-03-03T03:36:19.805Z,7.57
2023-03-03T03:37:22.384Z,6.99
2023-03-03T03:38:25.023Z,7.60
2023-03-03T03:39:27.854Z,8.02
2023-03-03T03:40:30.968Z,7.54
2023-03-03T03:41:33.672Z,7.95
2023-03-03T03:42:36.250Z,7.73
2023-03-03T03:43:38.828Z,7.92
2023-03-03T03:44:41.718Z,7.40
2023-03-03T03:45:44.296Z,8.73
2023-03-03T03:46:47.056Z,8.27
2023-03-03T03:47:49.608Z,8.39
2023-03-03T03:48:52.217Z,8.67
2023-03-03T03:49:54.794Z,8.13
2023-03-03T03:50:57.485Z,7.59
2023-03-03T03:52:00.050Z,8.15
2023-03-03T03:53:02.592Z,7.75
2023-03-03T03:54:05.179Z,7.95
2023-03-03T03:55:07.759Z,7.38
2023-03-03T03:56:11.433Z,8.31
2023-03-03T03:57:14.013Z,7.71
2023-03-03T03:58:16.571Z,8.17
2023-03-03T03:59:19.125Z,8.03
2023-03-03T04:00:21.796Z,8.71
2023-03-03T04:01:24.494Z,8.24
2023-03-03T04:02:27.111Z,8.33
2023-03-03T04:03:29.890Z,8.39
2023-03-03T04:04:32.822Z,7.96
2023-03-03T04:05:35.380Z,8.45
2023-03-03T04:06:38.062Z,8.02
2023-03-03T04:07:40.622Z,8.72
2023-03-03T04:08:43.091Z,7.44
2023-03-03T04:09:45.656Z,7.53
2023-03-03T04:10:48.418Z,9.26
2023-03-03T04:11:51.157Z,7.73
2023-03-03T04:12:53.665Z,9.18
2023-03-03T04:13:56.234Z,8.62
2023-03-03T04:14:58.791Z,7.77
2023-03-03T04:16:01.384Z,9.02
2023-03-03T04:17:04.466Z,7.54
2023-03-03T04:18:06.937Z,6.77
2023-03-03T04:19:09.516Z,7.86
2023-03-03T04:20:13.103Z,7.99
2023-03-03T04:21:15.713Z,7.57
2023-03-03T04:22:18.317Z,8.42
2023-03-03T04:23:20.937Z,7.35
2023-03-03T04:24:23.497Z,8.57
2023-03-03T04:25:26.082Z,7.57
2023-03-03T04:26:29.142Z,7.83
2023-03-03T04:27:31.754Z,7.65
2023-03-03T04:28:34.342Z,7.86
2023-03-03T04:29:36.898Z,8.14
2023-03-03T04:30:40.022Z,8.29
2023-03-03T04:31:42.548Z,36.14
2023-03-03T04:32:45.151Z,53.39
2023-03-03T04:33:47.882Z,103.87
2023-03-03T04:34:58.667Z,156.65
2023-03-03T04:35:54.877Z,104.78
2023-03-03T04:36:57.608Z,46.36
2023-03-03T04:38:00.215Z,46.34
2023-03-03T04:39:02.826Z,52.87
2023-03-03T04:40:05.714Z,47.57
2023-03-03T04:41:08.264Z,48.87
2023-03-03T04:42:10.820Z,163.79
2023-03-03T04:43:13.439Z,190.73
2023-03-03T04:44:16.057Z,75.59
2023-03-03T04:45:18.620Z,48.12
2023-03-03T04:46:21.393Z,20.04
2023-03-03T04:47:24.053Z,21.29
2023-03-03T04:48:26.771Z,25.18
2023-03-03T04:49:29.369Z,15.10
2023-03-03T04:50:32.044Z,40.58
2023-03-03T04:51:34.620Z,17.93
2023-03-03T04:52:37.178Z,50.05
2023-03-03T04:53:39.658Z,70.53
2023-03-03T04:54:42.233Z,68.01
2023-03-03T04:55:44.827Z,41.56
2023-03-03T04:56:47.789Z,37.08
2023-03-03T04:57:50.432Z,21.95
2023-03-03T04:58:52.982Z,41.95
2023-03-03T04:59:55.581Z,23.31
2023-03-03T05:00:58.455Z,24.74
2023-03-03T05:02:00.997Z,31.63
2023-03-03T05:03:03.453Z,24.11
2023-03-03T05:04:06.204Z,15.59
2023-03-03T05:05:08.768Z,9.69
2023-03-03T05:06:12.175Z,12.99
2023-03-03T05:07:14.718Z,9.66
2023-03-03T05:08:17.248Z,12.11
2023-03-03T05:09:19.830Z,12.64
2023-03-03T05:10:22.791Z,16.46
2023-03-03T05:11:25.411Z,10.61
2023-03-03T05:12:28.104Z,15.65
2023-03-03T05:13:30.567Z,13.35
2023-03-03T05:14:33.163Z,14.39
2023-03-03T05:15:35.749Z,16.31
2023-03-03T05:16:38.416Z,16.04
2023-03-03T05:17:40.885Z,10.07
2023-03-03T05:18:43.432Z,14.85
2023-03-03T05:19:46.211Z,9.11
2023-03-03T05:20:49.193Z,11.49
2023-03-03T05:21:51.769Z,12.85
2023-03-03T05:22:54.322Z,8.99
2023-03-03T05:23:56.948Z,12.53
2023-03-03T05:24:59.553Z,12.46
2023-03-03T05:26:02.386Z,8.97
2023-03-03T05:27:04.966Z,12.01
2023-03-03T05:28:07.541Z,10.28
2023-03-03T05:29:10.105Z,7.53
2023-03-03T05:30:13.552Z,9.36
2023-03-03T05:31:16.135Z,11.87
2023-03-03T05:32:18.759Z,11.37
2023-03-03T05:33:21.450Z,10.10
2023-03-03T05:34:24.005Z,11.07
2023-03-03T05:35:26.688Z,8.84
2023-03-03T05:36:29.825Z,9.26
2023-03-03T05:37:32.405Z,8.33
2023-03-03T05:38:34.963Z,9.98
2023-03-03T05:39:37.522Z,8.63
2023-03-03T05:40:40.532Z,7.86
2023-03-03T05:41:43.363Z,8.35
2023-03-03T05:42:46.121Z,10.19
2023-03-03T05:43:48.810Z,9.09
2023-03-03T05:44:51.338Z,10.41
2023-03-03T05:45:53.937Z,9.89
2023-03-03T05:46:56.851Z,5.21
2023-03-03T05:47:59.365Z,9.06
2023-03-03T05:49:01.958Z,10.33
2023-03-03T05:50:04.812Z,11.35
2023-03-03T05:51:07.315Z,7.59
2023-03-03T05:52:09.839Z,10.81
2023-03-03T05:53:12.396Z,8.50
2023-03-03T05:54:14.885Z,10.03
2023-03-03T05:55:17.446Z,9.05
2023-03-03T05:56:21.061Z,4.46
2023-03-03T05:57:23.687Z,10.37
2023-03-03T05:58:26.246Z,10.23
2023-03-03T05:59:28.713Z,9.19
2023-03-03T06:00:31.817Z,9.19
2023-03-03T06:01:34.429Z,10.34
2023-03-03T06:02:37.021Z,9.21
2023-03-03T06:03:39.526Z,8.66
2023-03-03T06:04:42.098Z,8.81
2023-03-03T06:05:44.681Z,10.49
2023-03-03T06:06:47.559Z,9.38
2023-03-03T06:07:50.122Z,10.26
2023-03-03T06:08:52.694Z,5.43
2023-03-03T06:09:55.295Z,4.85
2023-03-03T06:10:57.898Z,8.56
2023-03-03T06:12:00.473Z,5.08
2023-03-03T06:13:03.018Z,7.05
2023-03-03T06:14:05.632Z,7.84
2023-03-03T06:15:08.657Z,10.19
2023-03-03T06:16:12.829Z,8.38
2023-03-03T06:17:15.800Z,9.45
2023-03-03T06:18:18.351Z,10.55
2023-03-03T06:19:20.941Z,10.73
2023-03-03T06:20:23.705Z,9.00
2023-03-03T06:21:26.256Z,9.87
2023-03-03T06:22:28.837Z,9.39
2023-03-03T06:23:31.444Z,9.61
2023-03-03T06:24:33.983Z,7.31
2023-03-03T06:25:36.545Z,9.18
2023-03-03T06:26:39.453Z,9.11
2023-03-03T06:27:42.029Z,9.39
2023-03-03T06:28:44.613Z,9.64
2023-03-03T06:29:47.245Z,10.03
2023-03-03T06:30:49.845Z,8.15
2023-03-03T06:31:52.542Z,10.23
2023-03-03T06:32:55.129Z,9.47
2023-03-03T06:33:57.873Z,9.05
2023-03-03T06:35:00.478Z,9.80
2023-03-03T06:36:05.668Z,9.47
2023-03-03T06:37:07.446Z,10.09
2023-03-03T06:38:10.230Z,8.89
2023-03-03T06:39:12.790Z,9.48
2023-03-03T06:40:15.666Z,8.91
2023-03-03T06:41:18.199Z,8.11
2023-03-03T06:42:20.794Z,7.91
2023-03-03T06:43:23.360Z,9.10
2023-03-03T06:44:28.378Z,6.81
2023-03-03T06:45:30.617Z,6.98
2023-03-03T06:46:33.343Z,10.15
2023-03-03T06:47:35.949Z,9.62
2023-03-03T06:48:38.525Z,8.31
2023-03-03T06:49:41.097Z,8.87
2023-03-03T06:50:43.945Z,4.99
2023-03-03T06:51:46.443Z,7.07
2023-03-03T06:52:50.732Z,7.77
2023-03-03T06:53:53.488Z,9.08
2023-03-03T06:54:56.037Z,6.83
2023-03-03T06:55:58.495Z,8.87
2023-03-03T06:57:01.154Z,8.76
2023-03-03T06:58:03.789Z,9.52
2023-03-03T06:59:06.285Z,8.73
2023-03-03T07:00:10.550Z,6.79
2023-03-03T07:01:13.131Z,8.95
2023-03-03T07:02:15.759Z,9.76
2023-03-03T07:03:18.356Z,9.42
2023-03-03T07:04:21.096Z,8.91
2023-03-03T07:05:23.691Z,8.80
2023-03-03T07:06:26.366Z,8.82
2023-03-03T07:07:28.942Z,7.73
2023-03-03T07:08:31.497Z,9.51
2023-03-03T07:09:34.060Z,9.21
2023-03-03T07:10:36.716Z,8.56
2023-03-03T07:11:39.272Z,8.08
2023-03-03T07:12:42.134Z,8.17
2023-03-03T07:13:44.913Z,8.18
2023-03-03T07:14:47.474Z,8.19
2023-03-03T07:15:50.058Z,7.98
2023-03-03T07:16:52.854Z,9.01
2023-03-03T07:17:55.480Z,9.57
2023-03-03T07:18:58.096Z,7.76
2023-03-03T07:20:00.671Z,8.39
2023-03-03T07:21:03.276Z,7.63
2023-03-03T07:22:05.813Z,7.25
2023-03-03T07:23:08.385Z,8.11
2023-03-03T07:24:10.987Z,8.37
2023-03-03T07:25:13.561Z,9.36
2023-03-03T07:26:16.540Z,9.08
2023-03-03T07:27:19.108Z,9.91
2023-03-03T07:28:21.662Z,9.06
2023-03-03T07:29:24.257Z,5.48
2023-03-03T07:30:26.932Z,6.15
2023-03-03T07:31:29.471Z,5.41
2023-03-03T07:32:32.120Z,6.79
2023-03-03T07:33:34.728Z,6.61
2023-03-03T07:34:37.300Z,6.33
2023-03-03T07:35:39.941Z,6.46
2023-03-03T07:36:42.959Z,6.68
2023-03-03T07:37:45.542Z,6.95
2023-03-03T07:38:48.614Z,7.40
2023-03-03T07:39:51.835Z,6.39
2023-03-03T07:40:54.868Z,6.75
2023-03-03T07:41:57.381Z,6.68
2023-03-03T07:42:59.952Z,7.59
2023-03-03T07:44:02.511Z,7.97
2023-03-03T07:45:05.285Z,6.95
2023-03-03T07:46:08.654Z,6.58
2023-03-03T07:47:11.518Z,8.06
2023-03-03T07:48:14.104Z,7.65
2023-03-03T07:49:16.648Z,5.83
2023-03-03T07:50:19.341Z,7.43
2023-03-03T07:51:21.939Z,7.55
2023-03-03T07:52:24.528Z,8.79
2023-03-03T07:53:27.154Z,5.41
2023-03-03T07:54:29.754Z,5.94
2023-03-03T07:55:32.356Z,7.39
2023-03-03T07:56:35.123Z,6.32
2023-03-03T07:57:37.726Z,5.99
2023-03-03T07:58:40.290Z,5.10
2023-03-03T07:59:42.833Z,5.69
2023-03-03T08:00:45.658Z,5.67
2023-03-03T08:01:48.203Z,8.09
2023-03-03T08:02:50.763Z,6.31
2023-03-03T08:03:53.353Z,5.69
2023-03-03T08:04:55.988Z,7.89
2023-03-03T08:05:58.555Z,6.19
2023-03-03T08:07:01.240Z,8.06
2023-03-03T08:08:03.809Z,8.40
2023-03-03T08:09:06.364Z,7.14
2023-03-03T08:10:09.611Z,6.89
2023-03-03T08:11:12.421Z,6.44
2023-03-03T08:12:15.032Z,7.03
2023-03-03T08:13:17.619Z,4.64
2023-03-03T08:14:20.177Z,3.65
2023-03-03T08:15:22.783Z,5.47
2023-03-03T08:16:25.586Z,5.61
2023-03-03T08:17:28.214Z,4.29
2023-03-03T08:18:30.776Z,6.78
2023-03-03T08:19:33.332Z,6.94
2023-03-03T08:20:35.897Z,7.65
2023-03-03T08:21:38.471Z,6.93
2023-03-03T08:22:41.186Z,6.53
2023-03-03T08:23:43.746Z,6.57
2023-03-03T08:24:46.313Z,7.67
2023-03-03T08:25:48.886Z,8.41
2023-03-03T08:26:51.663Z,6.63
2023-03-03T08:27:54.262Z,3.72
2023-03-03T08:28:56.840Z,5.81
2023-03-03T08:29:59.641Z,6.12
2023-03-03T08:31:15.355Z,5.85
2023-03-03T08:32:07.017Z,6.95
2023-03-03T08:33:09.816Z,5.76
2023-03-03T08:34:12.418Z,5.72
2023-03-03T08:35:15.044Z,4.57
2023-03-03T08:36:17.833Z,5.85
2023-03-03T08:37:20.521Z,4.67
2023-03-03T08:38:23.109Z,3.61
2023-03-03T08:39:25.688Z,4.93
2023-03-03T08:40:28.444Z,5.47
2023-03-03T08:41:31.111Z,5.43
2023-03-03T08:42:33.684Z,4.13
2023-03-03T08:43:36.293Z,5.48
2023-03-03T08:44:38.861Z,5.47
2023-03-03T08:45:41.417Z,5.19
2023-03-03T08:46:44.303Z,5.76
2023-03-03T08:47:47.179Z,4.46
2023-03-03T08:48:49.765Z,3.95
2023-03-03T08:49:52.299Z,4.77
2023-03-03T08:50:55.191Z,5.44
2023-03-03T08:51:57.790Z,5.04
2023-03-03T08:53:00.362Z,5.08
2023-03-03T08:54:02.968Z,5.31
2023-03-03T08:55:07.033Z,4.90
2023-03-03T08:56:10.743Z,4.99
2023-03-03T08:57:13.315Z,4.39
2023-03-03T08:58:16.028Z,4.89
2023-03-03T08:59:18.717Z,4.44
2023-03-03T09:00:21.394Z,4.78
2023-03-03T09:01:24.001Z,3.89
2023-03-03T09:02:26.522Z,4.18
2023-03-03T09:03:29.137Z,4.66
2023-03-03T09:04:31.731Z,4.73
2023-03-03T09:05:34.338Z,5.52
2023-03-03T09:06:37.315Z,5.72
2023-03-03T09:07:39.865Z,5.63
2023-03-03T09:08:42.491Z,5.03
2023-03-03T09:09:45.122Z,4.21
2023-03-03T09:10:48.030Z,4.58
2023-03-03T09:11:50.561Z,3.95
2023-03-03T09:12:53.129Z,3.20
2023-03-03T09:13:55.700Z,5.06
2023-03-03T09:14:58.324Z,5.25
2023-03-03T09:16:01.004Z,4.45
2023-03-03T09:17:03.763Z,5.00
2023-03-03T09:18:06.369Z,4.78
2023-03-03T09:19:08.925Z,3.70
2023-03-03T09:20:12.045Z,4.24
2023-03-03T09:21:14.616Z,5.21
2023-03-03T09:22:17.181Z,5.25
2023-03-03T09:23:19.776Z,4.53
2023-03-03T09:24:22.634Z,4.70
2023-03-03T09:25:25.161Z,4.54
2023-03-03T09:26:28.402Z,4.96
2023-03-03T09:27:31.011Z,3.81
2023-03-03T09:28:33.562Z,5.59
2023-03-03T09:29:36.165Z,5.14
2023-03-03T09:30:39.114Z,5.26
2023-03-03T09:31:41.728Z,5.84
2023-03-03T09:32:44.436Z,5.15
2023-03-03T09:33:47.109Z,5.14
2023-03-03T09:34:49.652Z,5.62
2023-03-03T09:35:52.268Z,5.55
2023-03-03T09:36:55.088Z,4.97
2023-03-03T09:37:57.623Z,4.29
2023-03-03T09:39:00.180Z,2.98
2023-03-03T09:40:03.044Z,4.42
2023-03-03T09:41:05.551Z,5.03
2023-03-03T09:42:08.405Z,5.11
2023-03-03T09:43:10.961Z,4.19
2023-03-03T09:44:13.950Z,4.04
2023-03-03T09:45:16.526Z,4.27
2023-03-03T09:46:19.409Z,3.47
2023-03-03T09:47:22.248Z,3.32
2023-03-03T09:48:25.009Z,3.94
2023-03-03T09:49:27.549Z,3.69
2023-03-03T09:50:30.317Z,3.71
2023-03-03T09:51:32.925Z,3.81
2023-03-03T09:52:35.477Z,3.02
2023-03-03T09:53:38.040Z,2.23
2023-03-03T09:54:40.613Z,4.41
2023-03-03T09:55:43.235Z,3.35
2023-03-03T09:56:46.056Z,3.60
2023-03-03T09:57:55.767Z,3.34
2023-03-03T09:58:52.988Z,3.18
2023-03-03T09:59:55.543Z,2.29
2023-03-03T10:00:58.343Z,3.40
2023-03-03T10:02:00.894Z,3.99
2023-03-03T10:03:03.517Z,2.40
2023-03-03T10:04:06.330Z,3.98
2023-03-03T10:05:08.965Z,3.51
2023-03-03T10:06:11.925Z,3.98
2023-03-03T10:07:14.503Z,3.23
2023-03-03T10:08:17.071Z,3.74
2023-03-03T10:09:19.629Z,4.14
2023-03-03T10:10:22.386Z,3.35
2023-03-03T10:11:24.993Z,3.49
2023-03-03T10:12:28.799Z,3.24
2023-03-03T10:13:31.392Z,3.57
2023-03-03T10:14:33.983Z,3.14
2023-03-03T10:15:36.582Z,3.12
2023-03-03T10:16:39.317Z,2.69
2023-03-03T10:17:41.919Z,4.29
2023-03-03T10:18:44.569Z,2.60
2023-03-03T10:19:47.614Z,3.09
2023-03-03T10:20:52.785Z,1.96
2023-03-03T10:21:54.938Z,1.88
2023-03-03T10:22:57.556Z,3.17
2023-03-03T10:24:00.079Z,2.17
2023-03-03T10:25:02.684Z,2.51
2023-03-03T10:26:05.531Z,3.39
2023-03-03T10:27:13.790Z,2.41
2023-03-03T10:28:12.486Z,4.16
2023-03-03T10:29:22.210Z,3.62
2023-03-03T10:30:33.193Z,4.60
2023-03-03T10:31:28.386Z,4.25
2023-03-03T10:32:28.834Z,3.25
2023-03-03T10:33:31.630Z,3.21
2023-03-03T10:34:34.625Z,4.14
2023-03-03T10:35:37.282Z,3.65
2023-03-03T10:36:40.435Z,4.05
2023-03-03T10:37:42.986Z,3.78
2023-03-03T10:38:45.584Z,4.35
2023-03-03T10:39:48.141Z,4.05
2023-03-03T10:40:51.145Z,3.47
2023-03-03T10:41:53.731Z,2.98
2023-03-03T10:42:56.311Z,3.16
2023-03-03T10:43:58.879Z,3.60
2023-03-03T10:45:02.028Z,3.17
2023-03-03T10:46:05.056Z,2.98
2023-03-03T10:47:07.593Z,3.01
2023-03-03T10:48:10.192Z,2.18
2023-03-03T10:49:12.791Z,3.26
2023-03-03T10:50:15.817Z,3.09
2023-03-03T10:51:18.388Z,3.05
2023-03-03T10:52:20.950Z,3.27
2023-03-03T10:53:23.568Z,3.51
2023-03-03T10:54:26.426Z,3.42
2023-03-03T10:55:29.006Z,3.77
2023-03-03T10:56:35.408Z,3.19
2023-03-03T10:57:36.189Z,2.99
2023-03-03T10:58:38.769Z,3.52
2023-03-03T10:59:41.392Z,3.93
2023-03-03T11:00:44.584Z,3.07
2023-03-03T11:01:47.162Z,4.41
2023-03-03T11:02:50.123Z,2.79
2023-03-03T11:03:53.005Z,3.90
2023-03-03T11:04:55.621Z,2.15
2023-03-03T11:05:58.183Z,2.52
2023-03-03T11:07:01.140Z,3.43
2023-03-03T11:08:04.313Z,3.02
2023-03-03T11:09:06.838Z,4.44
2023-03-03T11:10:09.885Z,5.81
2023-03-03T11:11:12.442Z,4.28
2023-03-03T11:12:15.001Z,10.57
2023-03-03T11:13:17.871Z,5.64
2023-03-03T11:14:20.433Z,8.59
2023-03-03T11:15:23.037Z,4.33
2023-03-03T11:16:25.856Z,6.64
2023-03-03T11:17:28.387Z,5.47
2023-03-03T11:18:30.949Z,7.08
2023-03-03T11:19:33.522Z,4.51
2023-03-03T11:20:36.251Z,4.36
2023-03-03T11:21:38.889Z,4.79
2023-03-03T11:22:41.455Z,4.70
2023-03-03T11:23:44.031Z,4.95
2023-03-03T11:24:46.580Z,4.21
2023-03-03T11:25:49.311Z,6.06
2023-03-03T11:26:53.976Z,5.51
2023-03-03T11:27:56.556Z,4.87
2023-03-03T11:28:59.113Z,5.30
2023-03-03T11:30:01.680Z,2.98
2023-03-03T11:31:04.331Z,4.27
2023-03-03T11:32:07.078Z,2.56
2023-03-03T11:33:09.816Z,4.29
2023-03-03T11:34:12.374Z,5.37
2023-03-03T11:35:14.927Z,6.44
2023-03-03T11:36:17.535Z,7.81
2023-03-03T11:37:20.099Z,3.99
2023-03-03T11:38:22.666Z,1.59
2023-03-03T11:39:25.226Z,7.03
2023-03-03T11:40:27.803Z,3.62
2023-03-03T11:41:30.376Z,5.21
2023-03-03T11:42:32.962Z,7.83
2023-03-03T11:43:37.457Z,4.63
2023-03-03T11:44:39.709Z,4.79
2023-03-03T11:45:42.262Z,5.85
2023-03-03T11:46:45.050Z,3.54
2023-03-03T11:47:47.517Z,4.59
2023-03-03T11:48:50.084Z,4.59
2023-03-03T11:49:52.626Z,4.04
2023-03-03T11:50:55.494Z,4.44
2023-03-03T11:51:58.077Z,4.18
2023-03-03T11:53:00.633Z,3.70
2023-03-03T11:54:03.197Z,3.71
2023-03-03T11:55:05.770Z,4.53
2023-03-03T11:56:10.098Z,4.69
2023-03-03T11:57:13.049Z,4.99
2023-03-03T11:58:15.652Z,9.65
2023-03-03T11:59:18.266Z,4.83
2023-03-03T12:00:21.016Z,3.64
2023-03-03T12:01:24.891Z,3.54
2023-03-03T12:02:27.475Z,4.07
2023-03-03T12:03:30.459Z,5.78
2023-03-03T12:04:32.996Z,3.64
2023-03-03T12:05:35.691Z,4.25
2023-03-03T12:06:38.599Z,5.63
2023-03-03T12:07:41.187Z,6.70
2023-03-03T12:08:43.750Z,8.41
2023-03-03T12:09:46.202Z,7.57
2023-03-03T12:10:48.960Z,3.80
2023-03-03T12:11:53.978Z,4.73
2023-03-03T12:12:55.894Z,5.91
2023-03-03T12:13:58.500Z,9.35
2023-03-03T12:15:01.076Z,6.69
2023-03-03T12:16:03.873Z,3.79
2023-03-03T12:17:06.593Z,4.96
2023-03-03T12:18:09.157Z,3.60
2023-03-03T12:19:11.707Z,17.17
2023-03-03T12:20:14.790Z,5.73
2023-03-03T12:21:17.416Z,2.89
2023-03-03T12:22:19.977Z,7.84
2023-03-03T12:23:22.564Z,4.89
2023-03-03T12:24:25.147Z,7.20
2023-03-03T12:25:27.825Z,5.38
2023-03-03T12:26:30.518Z,3.91
2023-03-03T12:27:33.064Z,4.87
2023-03-03T12:28:35.642Z,5.43
2023-03-03T12:29:38.510Z,11.63
2023-03-03T12:30:41.172Z,10.66
2023-03-03T12:31:43.820Z,9.10
2023-03-03T12:32:46.510Z,2.72
2023-03-03T12:33:49.108Z,5.55
2023-03-03T12:34:51.675Z,4.94
2023-03-03T12:35:54.297Z,4.25
2023-03-03T12:36:57.225Z,4.34
2023-03-03T12:37:59.778Z,4.46
2023-03-03T12:39:02.386Z,4.50
2023-03-03T12:40:05.452Z,3.97
2023-03-03T12:41:07.909Z,3.41
2023-03-03T12:42:10.467Z,4.29
2023-03-03T12:43:13.040Z,5.65
2023-03-03T12:44:15.609Z,4.76
2023-03-03T12:45:18.217Z,3.35
2023-03-03T12:46:21.047Z,3.93
2023-03-03T12:47:23.952Z,4.13
2023-03-03T12:48:26.508Z,4.62
2023-03-03T12:49:32.492Z,5.21
2023-03-03T12:50:33.782Z,4.60
2023-03-03T12:51:36.302Z,4.00
2023-03-03T12:52:38.983Z,3.93
2023-03-03T12:53:41.546Z,4.59
2023-03-03T12:54:44.105Z,4.23
2023-03-03T12:55:46.686Z,4.35
2023-03-03T12:56:49.442Z,4.16
2023-03-03T12:57:52.039Z,4.93
2023-03-03T12:58:54.575Z,3.79
2023-03-03T12:59:57.302Z,4.44
2023-03-03T13:01:00.149Z,4.83
2023-03-03T13:02:03.026Z,4.78
2023-03-03T13:03:05.674Z,3.95
2023-03-03T13:04:08.277Z,4.69
2023-03-03T13:05:10.813Z,3.89
2023-03-03T13:06:14.080Z,5.37
2023-03-03T13:07:16.639Z,5.77
2023-03-03T13:08:19.277Z,5.05
2023-03-03T13:09:22.117Z,4.84
2023-03-03T13:10:24.785Z,5.68
2023-03-03T13:11:27.439Z,4.43
2023-03-03T13:12:30.008Z,5.10
2023-03-03T13:13:32.578Z,4.14
2023-03-03T13:14:35.130Z,4.93
2023-03-03T13:15:38.241Z,5.06
2023-03-03T13:16:42.073Z,3.31
2023-03-03T13:17:44.691Z,3.18
2023-03-03T13:18:47.242Z,5.33
2023-03-03T13:19:49.827Z,5.10
2023-03-03T13:20:52.751Z,3.91
2023-03-03T13:21:55.252Z,4.70
2023-03-03T13:22:57.762Z,3.98
2023-03-03T13:24:00.379Z,4.77
2023-03-03T13:25:02.951Z,5.64
2023-03-03T13:26:05.708Z,5.09
2023-03-03T13:27:08.274Z,4.98
2023-03-03T13:28:10.854Z,6.08
2023-03-03T13:29:13.457Z,5.25
2023-03-03T13:30:16.399Z,6.02
2023-03-03T13:31:18.901Z,5.73
2023-03-03T13:32:21.488Z,5.23
2023-03-03T13:33:24.158Z,5.70
2023-03-03T13:34:26.720Z,5.35
2023-03-03T13:35:29.295Z,5.79
2023-03-03T13:36:32.113Z,5.58
2023-03-03T13:37:34.708Z,3.78
2023-03-03T13:38:37.275Z,5.93
2023-03-03T13:39:39.867Z,5.49
2023-03-03T13:40:42.447Z,5.51
2023-03-03T13:41:45.209Z,5.20
2023-03-03T13:42:47.836Z,4.90
2023-03-03T13:43:50.396Z,4.83
2023-03-03T13:44:52.987Z,5.40
2023-03-03T13:45:55.903Z,5.59
2023-03-03T13:46:58.789Z,4.64
2023-03-03T13:48:01.429Z,3.52
2023-03-03T13:49:04.397Z,3.99
2023-03-03T13:50:07.395Z,5.72
2023-03-03T13:51:09.944Z,6.14